首页
METAR-TAF:

METAR-TAF

机场 :

Ranger Station

阿根廷港, 爱达荷州, 美国

纬度: 44-12-31N, 经度: 114-56-04W, 海拔: 1980米

当前天气观测

该预报发布于21分钟前的15:51 UTC
静风
温度 -2°C
湿度 54%
气压 1021 hPa

METAR: KSNT 191551Z AUTO 00000KT M02/M10 A3016 RMK AO1 SLP210 T10221100

时间: 10:12 (16:12 UTC)


TAF: 丢失

超过4000个机场的气象观测和天气预报(METAR&TAF报告)。

可查询的气象台以黄色和红色小点在地图上表示。

将鼠标移到小点上方,可查看气象台名称。

然后点击查看天气观测和预报。

如需切换地图:点击带黑十字的绿色按钮放大地图;点击带横线的绿色按钮缩小地图;或者点击绿色箭头查看邻近地区的地图。


METAR-TAF: